sensor_id;sensor_type;location;lat;lon;timestamp;temperature;humidity
8095;DHT22;4090;49.270;8.696;2022-11-14T00:00:03;8.60;99.90
8095;DHT22;4090;49.270;8.696;2022-11-14T00:06:04;8.50;99.90
8095;DHT22;4090;49.270;8.696;2022-11-14T00:09:05;8.60;99.90
8095;DHT22;4090;49.270;8.696;2022-11-14T00:12:06;8.50;99.90
8095;DHT22;4090;49.270;8.696;2022-11-14T00:15:08;8.50;99.90
8095;DHT22;4090;49.270;8.696;2022-11-14T00:18:09;8.50;99.90
8095;DHT22;4090;49.270;8.696;2022-11-14T00:21:09;8.50;99.90
8095;DHT22;4090;49.270;8.696;2022-11-14T00:24:09;8.50;99.90
8095;DHT22;4090;49.270;8.696;2022-11-14T00:27:10;8.50;99.90
8095;DHT22;4090;49.270;8.696;2022-11-14T00:30:12;8.50;99.90
8095;DHT22;4090;49.270;8.696;2022-11-14T00:33:12;8.60;99.90
8095;DHT22;4090;49.270;8.696;2022-11-14T00:36:13;8.60;99.90
8095;DHT22;4090;49.270;8.696;2022-11-14T00:39:13;8.60;99.90
8095;DHT22;4090;49.270;8.696;2022-11-14T00:42:14;8.60;99.90
8095;DHT22;4090;49.270;8.696;2022-11-14T00:45:16;8.60;99.90
8095;DHT22;4090;49.270;8.696;2022-11-14T00:48:16;8.60;99.90
8095;DHT22;4090;49.270;8.696;2022-11-14T00:51:16;8.70;99.90
8095;DHT22;4090;49.270;8.696;2022-11-14T00:54:17;8.60;99.90
8095;DHT22;4090;49.270;8.696;2022-11-14T00:57:17;8.70;99.90
8095;DHT22;4090;49.270;8.696;2022-11-14T01:00:19;8.70;99.90
8095;DHT22;4090;49.270;8.696;2022-11-14T01:03:20;8.70;99.90
8095;DHT22;4090;49.270;8.696;2022-11-14T01:06:20;8.60;99.90
8095;DHT22;4090;49.270;8.696;2022-11-14T01:09:21;8.60;99.90
8095;DHT22;4090;49.270;8.696;2022-11-14T01:12:21;8.60;99.90
8095;DHT22;4090;49.270;8.696;2022-11-14T01:15:23;8.60;99.90
8095;DHT22;4090;49.270;8.696;2022-11-14T01:18:23;8.60;99.90
8095;DHT22;4090;49.270;8.696;2022-11-14T01:21:24;8.60;99.90
8095;DHT22;4090;49.270;8.696;2022-11-14T01:24:24;8.70;99.90
8095;DHT22;4090;49.270;8.696;2022-11-14T01:27:24;8.60;99.90
8095;DHT22;4090;49.270;8.696;2022-11-14T01:30:26;8.70;99.90
8095;DHT22;4090;49.270;8.696;2022-11-14T01:33:26;8.60;99.90
8095;DHT22;4090;49.270;8.696;2022-11-14T01:36:27;8.70;99.90
8095;DHT22;4090;49.270;8.696;2022-11-14T01:39:27;8.80;99.90
8095;DHT22;4090;49.270;8.696;2022-11-14T01:42:27;8.80;99.90
8095;DHT22;4090;49.270;8.696;2022-11-14T01:45:46;8.70;99.90
8095;DHT22;4090;49.270;8.696;2022-11-14T01:48:50;8.60;99.90
8095;DHT22;4090;49.270;8.696;2022-11-14T01:51:52;8.60;99.90
8095;DHT22;4090;49.270;8.696;2022-11-14T01:54:56;8.60;99.90
8095;DHT22;4090;49.270;8.696;2022-11-14T01:57:57;8.60;99.90
8095;DHT22;4090;49.270;8.696;2022-11-14T02:00:59;8.60;99.90
8095;DHT22;4090;49.270;8.696;2022-11-14T02:04:00;8.60;99.90
8095;DHT22;4090;49.270;8.696;2022-11-14T02:07:02;8.60;99.90
8095;DHT22;4090;49.270;8.696;2022-11-14T02:10:04;8.60;99.90
8095;DHT22;4090;49.270;8.696;2022-11-14T02:13:05;8.70;99.90
8095;DHT22;4090;49.270;8.696;2022-11-14T02:16:07;8.70;99.90
8095;DHT22;4090;49.270;8.696;2022-11-14T02:19:08;8.60;99.90
8095;DHT22;4090;49.270;8.696;2022-11-14T02:22:10;8.70;99.90
8095;DHT22;4090;49.270;8.696;2022-11-14T02:25:11;8.80;99.90
8095;DHT22;4090;49.270;8.696;2022-11-14T02:28:12;8.70;99.90
8095;DHT22;4090;49.270;8.696;2022-11-14T02:31:12;8.60;99.90
8095;DHT22;4090;49.270;8.696;2022-11-14T02:34:13;8.60;99.90
8095;DHT22;4090;49.270;8.696;2022-11-14T02:37:19;8.50;99.90
8095;DHT22;4090;49.270;8.696;2022-11-14T02:40:19;8.60;99.90
8095;DHT22;4090;49.270;8.696;2022-11-14T02:43:20;8.60;99.90
8095;DHT22;4090;49.270;8.696;2022-11-14T02:46:20;8.60;99.90
8095;DHT22;4090;49.270;8.696;2022-11-14T02:49:21;8.50;99.90
8095;DHT22;4090;49.270;8.696;2022-11-14T02:52:22;8.40;99.90
8095;DHT22;4090;49.270;8.696;2022-11-14T02:55:23;8.40;99.90
8095;DHT22;4090;49.270;8.696;2022-11-14T02:58:23;8.40;99.90
8095;DHT22;4090;49.270;8.696;2022-11-14T03:01:24;8.50;99.90
8095;DHT22;4090;49.270;8.696;2022-11-14T03:04:24;8.40;99.90
8095;DHT22;4090;49.270;8.696;2022-11-14T03:07:26;8.40;99.90
8095;DHT22;4090;49.270;8.696;2022-11-14T03:10:26;8.40;99.90
8095;DHT22;4090;49.270;8.696;2022-11-14T03:13:27;8.50;99.90
8095;DHT22;4090;49.270;8.696;2022-11-14T03:16:28;8.50;99.90
8095;DHT22;4090;49.270;8.696;2022-11-14T03:19:28;8.60;99.90
8095;DHT22;4090;49.270;8.696;2022-11-14T03:22:30;8.40;99.90
8095;DHT22;4090;49.270;8.696;2022-11-14T03:25:30;8.40;99.90
8095;DHT22;4090;49.270;8.696;2022-11-14T03:28:31;8.40;99.90
8095;DHT22;4090;49.270;8.696;2022-11-14T03:31:31;8.50;99.90
8095;DHT22;4090;49.270;8.696;2022-11-14T03:34:31;8.40;99.90
8095;DHT22;4090;49.270;8.696;2022-11-14T03:37:33;8.40;99.90
8095;DHT22;4090;49.270;8.696;2022-11-14T03:40:33;8.40;99.90
8095;DHT22;4090;49.270;8.696;2022-11-14T03:43:34;8.50;99.90
8095;DHT22;4090;49.270;8.696;2022-11-14T03:46:34;8.40;99.90
8095;DHT22;4090;49.270;8.696;2022-11-14T03:49:34;8.30;99.90
8095;DHT22;4090;49.270;8.696;2022-11-14T03:52:36;8.40;99.90
8095;DHT22;4090;49.270;8.696;2022-11-14T03:55:36;8.40;99.90
8095;DHT22;4090;49.270;8.696;2022-11-14T03:58:37;8.50;99.90
8095;DHT22;4090;49.270;8.696;2022-11-14T04:05:21;8.40;99.90
8095;DHT22;4090;49.270;8.696;2022-11-14T04:08:22;8.40;99.90
8095;DHT22;4090;49.270;8.696;2022-11-14T04:11:23;8.40;99.90
8095;DHT22;4090;49.270;8.696;2022-11-14T04:14:23;8.30;99.90
8095;DHT22;4090;49.270;8.696;2022-11-14T04:17:24;8.30;99.90
8095;DHT22;4090;49.270;8.696;2022-11-14T04:20:24;8.40;99.90
8095;DHT22;4090;49.270;8.696;2022-11-14T04:23:26;8.30;99.90
8095;DHT22;4090;49.270;8.696;2022-11-14T04:26:26;8.40;99.90
8095;DHT22;4090;49.270;8.696;2022-11-14T04:29:27;8.30;99.90
8095;DHT22;4090;49.270;8.696;2022-11-14T04:32:27;8.30;99.90
8095;DHT22;4090;49.270;8.696;2022-11-14T04:35:28;8.30;99.90
8095;DHT22;4090;49.270;8.696;2022-11-14T04:38:30;8.40;99.90
8095;DHT22;4090;49.270;8.696;2022-11-14T04:41:30;8.40;99.90
8095;DHT22;4090;49.270;8.696;2022-11-14T04:44:30;8.40;99.90
8095;DHT22;4090;49.270;8.696;2022-11-14T04:47:31;8.30;99.90
8095;DHT22;4090;49.270;8.696;2022-11-14T04:50:31;8.40;99.90
8095;DHT22;4090;49.270;8.696;2022-11-14T04:53:33;8.40;99.90
8095;DHT22;4090;49.270;8.696;2022-11-14T04:56:33;8.40;99.90
8095;DHT22;4090;49.270;8.696;2022-11-14T04:59:33;8.40;99.90
8095;DHT22;4090;49.270;8.696;2022-11-14T05:02:34;8.40;99.90
8095;DHT22;4090;49.270;8.696;2022-11-14T05:05:34;8.40;99.90
8095;DHT22;4090;49.270;8.696;2022-11-14T05:08:36;8.40;99.90
8095;DHT22;4090;49.270;8.696;2022-11-14T05:11:36;8.40;99.90
8095;DHT22;4090;49.270;8.696;2022-11-14T05:14:37;8.40;99.90
8095;DHT22;4090;49.270;8.696;2022-11-14T05:17:37;8.50;99.90
8095;DHT22;4090;49.270;8.696;2022-11-14T05:20:37;8.40;99.90
8095;DHT22;4090;49.270;8.696;2022-11-14T05:23:40;8.40;99.90
8095;DHT22;4090;49.270;8.696;2022-11-14T05:26:40;8.40;99.90
8095;DHT22;4090;49.270;8.696;2022-11-14T05:29:40;8.40;99.90
8095;DHT22;4090;49.270;8.696;2022-11-14T05:32:41;8.40;99.90
8095;DHT22;4090;49.270;8.696;2022-11-14T05:35:41;8.40;99.90
8095;DHT22;4090;49.270;8.696;2022-11-14T05:38:43;8.40;99.90
8095;DHT22;4090;49.270;8.696;2022-11-14T05:41:44;8.30;99.90
8095;DHT22;4090;49.270;8.696;2022-11-14T05:44:44;8.30;99.90
8095;DHT22;4090;49.270;8.696;2022-11-14T05:47:45;8.30;99.90
8095;DHT22;4090;49.270;8.696;2022-11-14T05:50:45;8.40;99.90
8095;DHT22;4090;49.270;8.696;2022-11-14T05:53:47;8.40;99.90
8095;DHT22;4090;49.270;8.696;2022-11-14T05:56:48;8.40;99.90
8095;DHT22;4090;49.270;8.696;2022-11-14T05:59:48;8.40;99.90
8095;DHT22;4090;49.270;8.696;2022-11-14T06:02:50;8.30;99.90
8095;DHT22;4090;49.270;8.696;2022-11-14T06:05:51;8.40;99.90
8095;DHT22;4090;49.270;8.696;2022-11-14T06:08:53;8.40;99.90
8095;DHT22;4090;49.270;8.696;2022-11-14T06:11:53;8.40;99.90
8095;DHT22;4090;49.270;8.696;2022-11-14T06:14:53;8.40;99.90
8095;DHT22;4090;49.270;8.696;2022-11-14T06:17:53;8.40;99.90
8095;DHT22;4090;49.270;8.696;2022-11-14T06:20:57;8.40;99.90
8095;DHT22;4090;49.270;8.696;2022-11-14T06:23:59;8.40;99.90
8095;DHT22;4090;49.270;8.696;2022-11-14T06:27:00;8.40;99.90
8095;DHT22;4090;49.270;8.696;2022-11-14T06:30:00;8.40;99.90
8095;DHT22;4090;49.270;8.696;2022-11-14T06:33:00;8.40;99.90
8095;DHT22;4090;49.270;8.696;2022-11-14T06:36:01;8.40;99.90
8095;DHT22;4090;49.270;8.696;2022-11-14T06:39:03;8.40;99.90
8095;DHT22;4090;49.270;8.696;2022-11-14T06:42:03;8.40;99.90
8095;DHT22;4090;49.270;8.696;2022-11-14T06:45:04;8.40;99.90
8095;DHT22;4090;49.270;8.696;2022-11-14T06:48:04;8.40;99.90
8095;DHT22;4090;49.270;8.696;2022-11-14T06:51:05;8.40;99.90
8095;DHT22;4090;49.270;8.696;2022-11-14T06:54:09;8.40;99.90
8095;DHT22;4090;49.270;8.696;2022-11-14T06:57:10;8.30;99.90
8095;DHT22;4090;49.270;8.696;2022-11-14T07:00:11;8.30;99.90
8095;DHT22;4090;49.270;8.696;2022-11-14T07:03:11;8.30;99.90
8095;DHT22;4090;49.270;8.696;2022-11-14T07:06:12;8.30;99.90
8095;DHT22;4090;49.270;8.696;2022-11-14T07:09:14;8.30;99.90
8095;DHT22;4090;49.270;8.696;2022-11-14T07:12:14;8.30;99.90
8095;DHT22;4090;49.270;8.696;2022-11-14T07:15:15;8.30;99.90
8095;DHT22;4090;49.270;8.696;2022-11-14T07:18:15;8.30;99.90
8095;DHT22;4090;49.270;8.696;2022-11-14T07:21:16;8.30;99.90
8095;DHT22;4090;49.270;8.696;2022-11-14T07:24:18;8.20;99.90
8095;DHT22;4090;49.270;8.696;2022-11-14T07:27:18;8.20;99.90
8095;DHT22;4090;49.270;8.696;2022-11-14T07:30:18;8.20;99.90
8095;DHT22;4090;49.270;8.696;2022-11-14T07:33:19;8.20;99.90
8095;DHT22;4090;49.270;8.696;2022-11-14T07:36:19;8.20;99.90
8095;DHT22;4090;49.270;8.696;2022-11-14T07:39:21;8.20;99.90
8095;DHT22;4090;49.270;8.696;2022-11-14T07:42:22;8.20;99.90
8095;DHT22;4090;49.270;8.696;2022-11-14T07:45:22;8.20;99.90
8095;DHT22;4090;49.270;8.696;2022-11-14T07:48:23;8.30;99.90
8095;DHT22;4090;49.270;8.696;2022-11-14T07:51:23;8.30;99.90
8095;DHT22;4090;49.270;8.696;2022-11-14T07:54:25;8.20;99.90
8095;DHT22;4090;49.270;8.696;2022-11-14T07:57:25;8.20;99.90
8095;DHT22;4090;49.270;8.696;2022-11-14T08:00:26;8.30;99.90
8095;DHT22;4090;49.270;8.696;2022-11-14T08:03:26;8.20;99.90
8095;DHT22;4090;49.270;8.696;2022-11-14T08:06:26;8.30;99.90
8095;DHT22;4090;49.270;8.696;2022-11-14T08:09:28;8.30;99.90
8095;DHT22;4090;49.270;8.696;2022-11-14T08:12:29;8.40;99.90
8095;DHT22;4090;49.270;8.696;2022-11-14T08:15:29;8.30;99.90
8095;DHT22;4090;49.270;8.696;2022-11-14T08:18:30;8.30;99.90
8095;DHT22;4090;49.270;8.696;2022-11-14T08:21:31;8.30;99.90
8095;DHT22;4090;49.270;8.696;2022-11-14T08:24:32;8.50;99.90
8095;DHT22;4090;49.270;8.696;2022-11-14T08:27:33;8.40;99.90
8095;DHT22;4090;49.270;8.696;2022-11-14T08:30:33;8.60;99.90
8095;DHT22;4090;49.270;8.696;2022-11-14T08:33:34;8.50;99.90
8095;DHT22;4090;49.270;8.696;2022-11-14T08:36:34;8.60;99.90
8095;DHT22;4090;49.270;8.696;2022-11-14T08:39:36;8.60;99.90
8095;DHT22;4090;49.270;8.696;2022-11-14T08:42:37;8.60;99.90
8095;DHT22;4090;49.270;8.696;2022-11-14T08:45:37;8.60;99.90
8095;DHT22;4090;49.270;8.696;2022-11-14T08:48:38;8.70;99.90
8095;DHT22;4090;49.270;8.696;2022-11-14T08:51:38;8.60;99.90
8095;DHT22;4090;49.270;8.696;2022-11-14T08:54:40;8.70;99.90
8095;DHT22;4090;49.270;8.696;2022-11-14T08:57:41;8.70;99.90
8095;DHT22;4090;49.270;8.696;2022-11-14T09:00:41;8.60;99.90
8095;DHT22;4090;49.270;8.696;2022-11-14T09:03:42;8.60;99.90
8095;DHT22;4090;49.270;8.696;2022-11-14T09:06:42;8.50;99.90
8095;DHT22;4090;49.270;8.696;2022-11-14T09:09:45;8.60;99.90
8095;DHT22;4090;49.270;8.696;2022-11-14T09:12:46;8.60;99.90
8095;DHT22;4090;49.270;8.696;2022-11-14T09:15:46;8.70;99.90
8095;DHT22;4090;49.270;8.696;2022-11-14T09:18:47;8.70;99.90
8095;DHT22;4090;49.270;8.696;2022-11-14T09:21:47;8.80;99.90
8095;DHT22;4090;49.270;8.696;2022-11-14T09:24:49;8.80;99.90
8095;DHT22;4090;49.270;8.696;2022-11-14T09:27:49;9.00;99.90
8095;DHT22;4090;49.270;8.696;2022-11-14T09:30:50;9.00;99.90
8095;DHT22;4090;49.270;8.696;2022-11-14T09:33:50;9.00;99.90
8095;DHT22;4090;49.270;8.696;2022-11-14T09:36:51;9.00;99.90
8095;DHT22;4090;49.270;8.696;2022-11-14T09:39:52;9.00;99.90
8095;DHT22;4090;49.270;8.696;2022-11-14T09:42:57;9.10;99.90
8095;DHT22;4090;49.270;8.696;2022-11-14T09:46:01;9.10;99.90
8095;DHT22;4090;49.270;8.696;2022-11-14T09:49:02;9.00;99.90
8095;DHT22;4090;49.270;8.696;2022-11-14T09:52:04;9.10;99.90
8095;DHT22;4090;49.270;8.696;2022-11-14T09:55:10;9.20;99.90
8095;DHT22;4090;49.270;8.696;2022-11-14T09:58:12;9.20;99.90
8095;DHT22;4090;49.270;8.696;2022-11-14T10:01:16;9.20;99.90
8095;DHT22;4090;49.270;8.696;2022-11-14T10:04:20;9.30;99.90
8095;DHT22;4090;49.270;8.696;2022-11-14T10:07:25;9.30;99.90
8095;DHT22;4090;49.270;8.696;2022-11-14T10:10:33;9.30;99.90
8095;DHT22;4090;49.270;8.696;2022-11-14T10:13:43;9.40;99.90
8095;DHT22;4090;49.270;8.696;2022-11-14T10:16:51;9.40;99.90
8095;DHT22;4090;49.270;8.696;2022-11-14T10:19:54;9.50;99.90
8095;DHT22;4090;49.270;8.696;2022-11-14T10:23:01;9.40;99.90
8095;DHT22;4090;49.270;8.696;2022-11-14T10:26:08;9.40;99.90
8095;DHT22;4090;49.270;8.696;2022-11-14T10:29:35;9.50;99.90
8095;DHT22;4090;49.270;8.696;2022-11-14T10:32:43;9.50;99.90
8095;DHT22;4090;49.270;8.696;2022-11-14T10:35:47;9.50;99.90
8095;DHT22;4090;49.270;8.696;2022-11-14T10:38:49;9.50;99.90
8095;DHT22;4090;49.270;8.696;2022-11-14T10:41:54;9.60;99.90
8095;DHT22;4090;49.270;8.696;2022-11-14T10:44:56;9.60;99.90
8095;DHT22;4090;49.270;8.696;2022-11-14T10:47:58;9.70;99.90
8095;DHT22;4090;49.270;8.696;2022-11-14T10:51:00;9.70;99.90
8095;DHT22;4090;49.270;8.696;2022-11-14T10:54:03;9.70;99.90
8095;DHT22;4090;49.270;8.696;2022-11-14T10:57:11;9.70;99.90
8095;DHT22;4090;49.270;8.696;2022-11-14T11:00:13;9.80;99.90
8095;DHT22;4090;49.270;8.696;2022-11-14T11:03:14;9.80;99.90
8095;DHT22;4090;49.270;8.696;2022-11-14T11:06:23;9.80;99.90
8095;DHT22;4090;49.270;8.696;2022-11-14T11:09:24;10.00;99.90
8095;DHT22;4090;49.270;8.696;2022-11-14T11:12:45;10.10;99.90
8095;DHT22;4090;49.270;8.696;2022-11-14T11:15:47;10.30;99.90
8095;DHT22;4090;49.270;8.696;2022-11-14T11:18:56;10.30;99.90
8095;DHT22;4090;49.270;8.696;2022-11-14T11:22:22;10.40;99.90
8095;DHT22;4090;49.270;8.696;2022-11-14T11:25:24;10.40;99.90
8095;DHT22;4090;49.270;8.696;2022-11-14T11:28:26;10.30;99.90
8095;DHT22;4090;49.270;8.696;2022-11-14T11:31:30;10.30;99.90
8095;DHT22;4090;49.270;8.696;2022-11-14T11:34:44;10.50;99.90
8095;DHT22;4090;49.270;8.696;2022-11-14T11:37:45;10.60;99.90
8095;DHT22;4090;49.270;8.696;2022-11-14T11:40:48;10.70;99.90
8095;DHT22;4090;49.270;8.696;2022-11-14T11:43:52;10.70;99.90
8095;DHT22;4090;49.270;8.696;2022-11-14T11:46:54;10.80;99.90
8095;DHT22;4090;49.270;8.696;2022-11-14T11:49:55;10.80;99.90
8095;DHT22;4090;49.270;8.696;2022-11-14T11:52:58;10.70;99.90
8095;DHT22;4090;49.270;8.696;2022-11-14T11:56:03;10.80;99.90
8095;DHT22;4090;49.270;8.696;2022-11-14T11:59:09;10.60;99.90
8095;DHT22;4090;49.270;8.696;2022-11-14T12:02:18;10.60;99.90
8095;DHT22;4090;49.270;8.696;2022-11-14T12:05:22;10.50;99.90
8095;DHT22;4090;49.270;8.696;2022-11-14T12:08:25;10.50;99.90
8095;DHT22;4090;49.270;8.696;2022-11-14T12:11:29;10.60;99.90
8095;DHT22;4090;49.270;8.696;2022-11-14T12:14:52;10.70;99.90
8095;DHT22;4090;49.270;8.696;2022-11-14T12:18:15;10.70;99.90
8095;DHT22;4090;49.270;8.696;2022-11-14T12:21:21;10.70;99.90
8095;DHT22;4090;49.270;8.696;2022-11-14T12:27:57;10.80;99.90
8095;DHT22;4090;49.270;8.696;2022-11-14T12:31:02;10.70;99.90
8095;DHT22;4090;49.270;8.696;2022-11-14T12:34:04;10.80;99.90
8095;DHT22;4090;49.270;8.696;2022-11-14T12:37:06;10.90;99.90
8095;DHT22;4090;49.270;8.696;2022-11-14T12:40:17;10.80;99.90
8095;DHT22;4090;49.270;8.696;2022-11-14T12:43:24;10.80;99.90
8095;DHT22;4090;49.270;8.696;2022-11-14T12:46:28;10.70;99.90
8095;DHT22;4090;49.270;8.696;2022-11-14T12:50:01;10.70;99.90
8095;DHT22;4090;49.270;8.696;2022-11-14T12:53:05;10.70;99.90
8095;DHT22;4090;49.270;8.696;2022-11-14T12:56:41;10.70;99.90
8095;DHT22;4090;49.270;8.696;2022-11-14T12:59:49;10.80;99.90
8095;DHT22;4090;49.270;8.696;2022-11-14T13:06:08;10.90;99.90
8095;DHT22;4090;49.270;8.696;2022-11-14T13:09:31;10.90;99.90
8095;DHT22;4090;49.270;8.696;2022-11-14T13:12:33;10.90;99.90
8095;DHT22;4090;49.270;8.696;2022-11-14T13:15:52;10.90;99.90
8095;DHT22;4090;49.270;8.696;2022-11-14T13:19:12;11.00;99.90
8095;DHT22;4090;49.270;8.696;2022-11-14T13:22:41;11.00;99.90
8095;DHT22;4090;49.270;8.696;2022-11-14T13:25:41;11.10;99.90
8095;DHT22;4090;49.270;8.696;2022-11-14T13:28:43;11.10;99.90
8095;DHT22;4090;49.270;8.696;2022-11-14T13:31:46;11.00;99.90
8095;DHT22;4090;49.270;8.696;2022-11-14T13:34:48;10.80;99.90
8095;DHT22;4090;49.270;8.696;2022-11-14T13:38:01;10.80;99.90
8095;DHT22;4090;49.270;8.696;2022-11-14T13:41:12;10.80;99.90
8095;DHT22;4090;49.270;8.696;2022-11-14T13:44:28;10.80;99.90
8095;DHT22;4090;49.270;8.696;2022-11-14T13:47:46;11.00;99.90
8095;DHT22;4090;49.270;8.696;2022-11-14T13:50:51;11.10;99.90
8095;DHT22;4090;49.270;8.696;2022-11-14T13:53:55;11.30;99.90
8095;DHT22;4090;49.270;8.696;2022-11-14T13:56:58;11.30;99.90
8095;DHT22;4090;49.270;8.696;2022-11-14T14:00:07;11.00;99.90
8095;DHT22;4090;49.270;8.696;2022-11-14T14:03:13;11.20;99.90
8095;DHT22;4090;49.270;8.696;2022-11-14T14:06:18;11.10;99.90
8095;DHT22;4090;49.270;8.696;2022-11-14T14:09:25;10.90;99.90
8095;DHT22;4090;49.270;8.696;2022-11-14T14:12:36;10.80;99.90
8095;DHT22;4090;49.270;8.696;2022-11-14T14:15:41;10.80;99.90
8095;DHT22;4090;49.270;8.696;2022-11-14T14:18:47;10.70;99.90
8095;DHT22;4090;49.270;8.696;2022-11-14T14:21:54;10.80;99.90
8095;DHT22;4090;49.270;8.696;2022-11-14T14:24:59;10.90;99.90
8095;DHT22;4090;49.270;8.696;2022-11-14T14:28:04;10.70;99.90
8095;DHT22;4090;49.270;8.696;2022-11-14T14:31:10;10.80;99.90
8095;DHT22;4090;49.270;8.696;2022-11-14T14:34:21;10.70;99.90
8095;DHT22;4090;49.270;8.696;2022-11-14T14:37:22;10.80;99.90
8095;DHT22;4090;49.270;8.696;2022-11-14T14:40:26;10.90;99.90
8095;DHT22;4090;49.270;8.696;2022-11-14T14:43:27;10.80;99.90
8095;DHT22;4090;49.270;8.696;2022-11-14T14:46:30;10.90;99.90
8095;DHT22;4090;49.270;8.696;2022-11-14T14:49:33;10.90;99.90
8095;DHT22;4090;49.270;8.696;2022-11-14T14:52:34;10.90;99.90
8095;DHT22;4090;49.270;8.696;2022-11-14T14:55:36;10.90;99.90
8095;DHT22;4090;49.270;8.696;2022-11-14T14:58:37;11.00;99.90
8095;DHT22;4090;49.270;8.696;2022-11-14T15:01:38;10.90;99.90
8095;DHT22;4090;49.270;8.696;2022-11-14T15:04:38;11.10;99.90
8095;DHT22;4090;49.270;8.696;2022-11-14T15:07:39;11.00;99.90
8095;DHT22;4090;49.270;8.696;2022-11-14T15:10:41;10.80;99.90
8095;DHT22;4090;49.270;8.696;2022-11-14T15:13:42;10.90;99.90
8095;DHT22;4090;49.270;8.696;2022-11-14T15:16:44;10.90;99.90
8095;DHT22;4090;49.270;8.696;2022-11-14T15:19:48;10.90;99.90
8095;DHT22;4090;49.270;8.696;2022-11-14T15:23:02;11.00;99.90
8095;DHT22;4090;49.270;8.696;2022-11-14T15:26:08;11.00;99.90
8095;DHT22;4090;49.270;8.696;2022-11-14T15:29:15;11.00;99.90
8095;DHT22;4090;49.270;8.696;2022-11-14T15:32:16;10.90;99.90
8095;DHT22;4090;49.270;8.696;2022-11-14T15:35:24;11.00;99.90
8095;DHT22;4090;49.270;8.696;2022-11-14T15:38:25;11.00;99.90
8095;DHT22;4090;49.270;8.696;2022-11-14T15:41:26;11.00;99.90
8095;DHT22;4090;49.270;8.696;2022-11-14T15:44:28;11.00;99.90
8095;DHT22;4090;49.270;8.696;2022-11-14T15:47:31;11.00;99.90
8095;DHT22;4090;49.270;8.696;2022-11-14T15:50:33;10.90;99.90
8095;DHT22;4090;49.270;8.696;2022-11-14T15:53:34;10.90;99.90
8095;DHT22;4090;49.270;8.696;2022-11-14T15:56:37;10.90;99.90
8095;DHT22;4090;49.270;8.696;2022-11-14T15:59:37;10.90;99.90
8095;DHT22;4090;49.270;8.696;2022-11-14T16:02:40;10.90;99.90
8095;DHT22;4090;49.270;8.696;2022-11-14T16:05:42;10.90;99.90
8095;DHT22;4090;49.270;8.696;2022-11-14T16:08:43;10.90;99.90
8095;DHT22;4090;49.270;8.696;2022-11-14T16:11:45;10.90;99.90
8095;DHT22;4090;49.270;8.696;2022-11-14T16:14:46;10.90;99.90
8095;DHT22;4090;49.270;8.696;2022-11-14T16:17:47;10.90;99.90
8095;DHT22;4090;49.270;8.696;2022-11-14T16:20:48;10.90;99.90
8095;DHT22;4090;49.270;8.696;2022-11-14T16:23:49;10.90;99.90
8095;DHT22;4090;49.270;8.696;2022-11-14T16:26:51;10.90;99.90
8095;DHT22;4090;49.270;8.696;2022-11-14T16:29:51;10.90;99.90
8095;DHT22;4090;49.270;8.696;2022-11-14T16:32:52;10.90;99.90
8095;DHT22;4090;49.270;8.696;2022-11-14T16:35:52;10.90;99.90
8095;DHT22;4090;49.270;8.696;2022-11-14T16:38:53;10.90;99.90
8095;DHT22;4090;49.270;8.696;2022-11-14T16:41:59;10.90;99.90
8095;DHT22;4090;49.270;8.696;2022-11-14T16:45:01;11.00;99.90
8095;DHT22;4090;49.270;8.696;2022-11-14T16:48:01;11.00;99.90
8095;DHT22;4090;49.270;8.696;2022-11-14T16:51:02;11.00;99.90
8095;DHT22;4090;49.270;8.696;2022-11-14T16:54:03;11.00;99.90
8095;DHT22;4090;49.270;8.696;2022-11-14T16:57:04;11.00;99.90
8095;DHT22;4090;49.270;8.696;2022-11-14T17:00:05;11.00;99.90
8095;DHT22;4090;49.270;8.696;2022-11-14T17:03:06;11.10;99.90
8095;DHT22;4090;49.270;8.696;2022-11-14T17:06:06;11.00;99.90
8095;DHT22;4090;49.270;8.696;2022-11-14T17:09:06;11.00;99.90
8095;DHT22;4090;49.270;8.696;2022-11-14T17:12:08;11.00;99.90
8095;DHT22;4090;49.270;8.696;2022-11-14T17:15:09;11.00;99.90
8095;DHT22;4090;49.270;8.696;2022-11-14T17:18:09;11.10;99.90
8095;DHT22;4090;49.270;8.696;2022-11-14T17:21:10;11.10;99.90
8095;DHT22;4090;49.270;8.696;2022-11-14T17:24:11;11.00;99.90
8095;DHT22;4090;49.270;8.696;2022-11-14T17:27:12;11.10;99.90
8095;DHT22;4090;49.270;8.696;2022-11-14T17:30:13;11.00;99.90
8095;DHT22;4090;49.270;8.696;2022-11-14T17:33:14;11.10;99.90
8095;DHT22;4090;49.270;8.696;2022-11-14T17:36:14;11.10;99.90
8095;DHT22;4090;49.270;8.696;2022-11-14T17:39:15;11.00;99.90
8095;DHT22;4090;49.270;8.696;2022-11-14T17:42:16;10.90;99.90
8095;DHT22;4090;49.270;8.696;2022-11-14T17:45:17;11.00;99.90
8095;DHT22;4090;49.270;8.696;2022-11-14T17:48:17;10.90;99.90
8095;DHT22;4090;49.270;8.696;2022-11-14T17:51:17;10.90;99.90
8095;DHT22;4090;49.270;8.696;2022-11-14T17:54:18;10.90;99.90
8095;DHT22;4090;49.270;8.696;2022-11-14T17:57:20;10.80;99.90
8095;DHT22;4090;49.270;8.696;2022-11-14T18:00:20;10.90;99.90
8095;DHT22;4090;49.270;8.696;2022-11-14T18:03:21;10.90;99.90
8095;DHT22;4090;49.270;8.696;2022-11-14T18:06:21;10.90;99.90
8095;DHT22;4090;49.270;8.696;2022-11-14T18:09:22;11.00;99.90
8095;DHT22;4090;49.270;8.696;2022-11-14T18:12:24;10.90;99.90
8095;DHT22;4090;49.270;8.696;2022-11-14T18:15:24;10.90;99.90
8095;DHT22;4090;49.270;8.696;2022-11-14T18:18:25;10.80;99.90
8095;DHT22;4090;49.270;8.696;2022-11-14T18:21:25;10.90;99.90
8095;DHT22;4090;49.270;8.696;2022-11-14T18:24:25;10.90;99.90
8095;DHT22;4090;49.270;8.696;2022-11-14T18:27:27;10.90;99.90
8095;DHT22;4090;49.270;8.696;2022-11-14T18:30:28;10.80;99.90
8095;DHT22;4090;49.270;8.696;2022-11-14T18:33:28;10.90;99.90
8095;DHT22;4090;49.270;8.696;2022-11-14T18:36:29;10.80;99.90
8095;DHT22;4090;49.270;8.696;2022-11-14T18:39:29;10.80;99.90
8095;DHT22;4090;49.270;8.696;2022-11-14T18:42:31;10.80;99.90
8095;DHT22;4090;49.270;8.696;2022-11-14T18:45:33;10.80;99.90
8095;DHT22;4090;49.270;8.696;2022-11-14T18:48:33;10.80;99.90
8095;DHT22;4090;49.270;8.696;2022-11-14T18:51:34;10.80;99.90
8095;DHT22;4090;49.270;8.696;2022-11-14T18:54:40;10.80;99.90
8095;DHT22;4090;49.270;8.696;2022-11-14T18:57:41;10.80;99.90
8095;DHT22;4090;49.270;8.696;2022-11-14T19:00:42;10.80;99.90
8095;DHT22;4090;49.270;8.696;2022-11-14T19:03:43;10.70;99.90
8095;DHT22;4090;49.270;8.696;2022-11-14T19:06:43;10.80;99.90
8095;DHT22;4090;49.270;8.696;2022-11-14T19:09:43;10.80;99.90
8095;DHT22;4090;49.270;8.696;2022-11-14T19:12:46;10.70;99.90
8095;DHT22;4090;49.270;8.696;2022-11-14T19:15:47;10.80;99.90
8095;DHT22;4090;49.270;8.696;2022-11-14T19:18:47;10.80;99.90
8095;DHT22;4090;49.270;8.696;2022-11-14T19:21:47;10.80;99.90
8095;DHT22;4090;49.270;8.696;2022-11-14T19:24:48;10.80;99.90
8095;DHT22;4090;49.270;8.696;2022-11-14T19:27:50;10.80;99.90
8095;DHT22;4090;49.270;8.696;2022-11-14T19:30:50;10.80;99.90
8095;DHT22;4090;49.270;8.696;2022-11-14T19:33:51;10.90;99.90
8095;DHT22;4090;49.270;8.696;2022-11-14T19:36:51;10.80;99.90
8095;DHT22;4090;49.270;8.696;2022-11-14T19:39:52;10.80;99.90
8095;DHT22;4090;49.270;8.696;2022-11-14T19:42:54;10.80;99.90
8095;DHT22;4090;49.270;8.696;2022-11-14T19:45:59;10.80;99.90
8095;DHT22;4090;49.270;8.696;2022-11-14T19:48:59;10.80;99.90
8095;DHT22;4090;49.270;8.696;2022-11-14T19:52:00;10.80;99.90
8095;DHT22;4090;49.270;8.696;2022-11-14T19:55:00;10.80;99.90
8095;DHT22;4090;49.270;8.696;2022-11-14T19:58:02;10.80;99.90
8095;DHT22;4090;49.270;8.696;2022-11-14T20:01:03;10.80;99.90
8095;DHT22;4090;49.270;8.696;2022-11-14T20:04:04;10.70;99.90
8095;DHT22;4090;49.270;8.696;2022-11-14T20:07:05;10.70;99.90
8095;DHT22;4090;49.270;8.696;2022-11-14T20:10:06;10.60;99.90
8095;DHT22;4090;49.270;8.696;2022-11-14T20:13:07;10.60;99.90